Flight Track Log - Related Links

Times and Time Zones

All times are in EDT time to prevent confusion due to time zone crossing. See the N6ZQ flight status page for this flight to view local times or setup timezone preferences in your user account.

Time Position Orientation Groundspeed Altitude Reporting Facility
EDT Latitude Longitude Course Direction KTS MPH feet Rate Location/Type
Fri 11:41:32 AM 35.3967 -79.6486 28° Northeast 212 244 9,500  Level Washington Center
Fri 11:42:26 AM 35.4417 -79.6150 31° Northeast 213 245 9,500  Level Washington Center
Fri 11:43:00 AM 34.8096 -79.8510 28° Northeast  Level Estimated
Fri 11:43:30 AM 35.4972 -79.5769 29° Northeast 219 252 9,500  Level Washington Center
Fri 11:44:00 AM 34.8545 -79.8219 28° Northeast  Level FlightAware Approximate
Fri 11:44:30 AM 35.5464 -79.5411 31° Northeast 211 243 9,500  Level Washington Center
Fri 11:45:00 AM 34.8995 -79.7927 28° Northeast  Level FlightAware Approximate
Fri 11:45:31 AM 35.5997 -79.5006 32° Northeast 216 249 9,500  Level Washington Center
Fri 11:46:00 AM 34.9445 -79.7635 28° Northeast  Level FlightAware Approximate
Fri 11:46:31 AM 35.6511 -79.4647 30° Northeast 217 250 9,500  Level Washington Center
Fri 11:47:00 AM 34.9894 -79.7343 28° Northeast  Level FlightAware Approximate
Fri 11:47:32 AM 35.7067 -79.4264 29° Northeast 219 252 9,500  Level Washington Center
Fri 11:48:33 AM 35.7578 -79.3878 32° Northeast 220 253 9,500  Level Washington Center
Fri 11:49:39 AM 35.8178 -79.3447 30° Northeast 217 250 9,500  Level Washington Center
Fri 11:50:34 AM 35.8667 -79.3111 29° Northeast 219 252 9,500  Level Washington Center
Fri 11:51:31 AM 35.9242 -79.2728 28° Northeast 220 253 9,500  Level Washington Center
Fri 11:51:41 AM 35.9242 -79.2703 90° East 222 255 9,500  Level Washington Center
Fri 11:52:32 AM 35.9714 -79.2314 34° Northeast 220 253 9,500  Level Washington Center
Fri 11:52:35 AM 35.9714 -79.2339 270° West 220 253 9,500  Level Washington Center
Fri 11:53:32 AM 36.0289 -79.1928 30° Northeast 220 253 9,500  Level Washington Center
Fri 11:53:35 AM 36.0267 -79.1953 222° Southwest 222 255 9,500  Level Washington Center
Fri 11:54:33 AM 36.0781 -79.1567 31° Northeast 220 253 9,500  Level Washington Center
Fri 11:54:36 AM 36.0800 -79.1592 314° West 222 255 9,500  Level Washington Center
Fri 11:55:33 AM 36.1356 -79.1128 34° Northeast 220 253 9,500  Level Washington Center
Fri 11:55:36 AM 36.1311 -79.1206 235° Southwest 222 255 9,500  Level Washington Center
Fri 11:56:37 AM 36.1844 -79.0817 30° Northeast 223 257 9,500  Level Washington Center
Fri 11:57:37 AM 36.2400 -79.0428 29° Northeast 221 254 9,500  Level Washington Center
Fri 11:58:33 AM 36.2911 -79.0014 33° Northeast 220 253 9,500  Level Washington Center
Fri 11:58:39 AM 36.2953 -79.0014 360° North 218 251 9,500  Level Washington Center
Fri 11:59:33 AM 36.3467 -78.9600 33° Northeast 220 253 9,500  Level Washington Center
Fri 12:00:34 PM 36.3869 -78.9306 30° Northeast 222 255 9,500  Level Washington Center
Fri 12:01:31 PM 36.4400 -78.8967 27° Northeast 222 255 9,500 -51 Level Washington Center
Fri 12:02:32 PM 36.4933 -78.8578 30° Northeast 217 250 9,400  Descending Washington Center
Fri 12:03:33 PM 36.5444 -78.8211 30° Northeast 217 250 9,500 49 Climbing Washington Center
Fri 12:04:34 PM 36.5978 -78.7819 31° Northeast 217 250 9,500  Level Washington Center
Fri 12:05:32 PM 36.6489 -78.7425 32° Northeast 212 244 9,500  Level Washington Center
Fri 12:06:33 PM 36.7000 -78.7031 32° Northeast 217 250 9,500  Level Washington Center
Fri 12:07:33 PM 36.7531 -78.6664 29° Northeast 212 244 9,500  Level Washington Center
Fri 12:08:33 PM 36.8106 -78.6219 32° Northeast 212 244 9,500  Level Washington Center
Fri 12:09:34 PM 36.8614 -78.5825 32° Northeast 212 244 9,500  Level Washington Center
Fri 12:10:32 PM 36.9144 -78.5456 29° Northeast 218 251 9,500  Level Washington Center
Fri 12:11:32 PM 36.9678 -78.5061 31° Northeast 218 251 9,500  Level Washington Center
Fri 12:12:33 PM 37.0144 -78.4689 32° Northeast 218 251 9,500  Level Washington Center
Fri 12:13:34 PM 37.0675 -78.4317 29° Northeast 218 251 9,500  Level Washington Center
Fri 12:14:32 PM 37.1228 -78.3894 31° Northeast 218 251 9,500  Level Washington Center
Fri 12:15:33 PM 37.1800 -78.3472 30° Northeast 218 251 9,500  Level Washington Center
Fri 12:16:31 PM 37.2353 -78.3075 30° Northeast 218 251 9,500  Level Washington Center
Fri 12:17:32 PM 37.2861 -78.2675 32° Northeast 218 251 9,500  Level Washington Center
Fri 12:18:32 PM 37.3414 -78.2275 30° Northeast 218 251 9,500  Level Washington Center
Fri 12:19:33 PM 37.3900 -78.1928 30° Northeast 218 251 9,500  Level Washington Center
Fri 12:20:33 PM 37.4514 -78.1503 29° Northeast 218 251 9,500  Level Washington Center
Fri 12:21:34 PM 37.4983 -78.1100 34° Northeast 219 252 9,500 -50 Level Washington Center
Fri 12:22:32 PM 37.5533 -78.0619 35° Northeast 219 252 9,400 -407 Descending Washington Center
Fri 12:23:32 PM 37.6025 -78.0114 39° Northeast 229 264 8,700 -744 Descending Washington Center
Fri 12:24:33 PM 37.6578 -77.9553 39° Northeast 234 269 7,900 -738 Descending Washington Center
Fri 12:25:34 PM 37.7064 -77.9175 32° Northeast 229 264 7,200 -706 Descending Washington Center
Fri 12:26:32 PM 37.7550 -77.8847 28° Northeast 206 237 6,500 -600 Descending Washington Center
Fri 12:27:34 PM 37.8081 -77.8469 29° Northeast 201 231 6,000 -550 Descending Washington Center
Fri 12:28:32 PM 37.8567 -77.8089 32° Northeast 201 231 5,400 -555 Descending Washington Center
Fri 12:29:33 PM 37.8969 -77.7786 31° Northeast 201 231 4,900 -496 Descending Washington Center
Fri 12:30:33 PM 37.9475 -77.7431 29° Northeast 190 219 4,400 -496 Descending Washington Center
Fri 12:31:34 PM 37.9878 -77.7128 31° Northeast 185 213 3,900 -446 Descending Washington Center
Fri 12:32:34 PM 38.0383 -77.6850 23° Northeast 185 213 3,500 -429 Descending Washington Center
Fri 12:34:22 PM 38.1167 -77.6167 34° Northeast 198 228 2,700 -379 Descending Potomac TRACON
Fri 12:35:28 PM 38.1833 -77.5833 21° North 199 229 2,400 -273 Descending Potomac TRACON
Fri 12:37:00 PM 38.2496 -77.5336 28° Northeast  Level FlightAware Approximate
Fri 12:44:00 PM 38.3500 -77.4500 30° Northeast  Level FlightAware Approximate
Fri 12:45:00 PM 38.3981 -77.4555 30° Northeast  Level Estimated
Fri 12:46:00 PM 38.3981 -77.4555 30° Northeast  Level Estimated
Fri 12:47:00 PM 38.3981 -77.4555 30° Northeast  Level Estimated
Fri 12:48:00 PM 38.3981 -77.4555 30° Northeast  Level Estimated
Fri 12:49:00 PM 38.3981 -77.4555 30° Northeast  Level Estimated
Fri 12:50:00 PM 38.3981 -77.4555 30° Northeast  Level Estimated
Fri 12:51:00 PM 38.3981 -77.4555 30° Northeast  Level Estimated
Fri 12:52:00 PM 38.3981 -77.4555 30° Northeast  Level Estimated
Fri 12:53:00 PM 38.3981 -77.4555 30° Northeast  Level Estimated
Fri 12:54:00 PM 38.3981 -77.4555 30° Northeast  Level Estimated
Fri 12:55:00 PM 38.3981 -77.4555 30° Northeast  Level Estimated
Fri 12:56:00 PM 38.3981 -77.4555 30° Northeast  Level Estimated
Fri 12:57:00 PM 38.3981 -77.4555 30° Northeast  Level Estimated
Fri 12:58:00 PM 38.3981 -77.4555 30° Northeast  Level Estimated
Fri 12:59:00 PM 38.3981 -77.4555 30° Northeast  Level Estimated
Fri 01:00:00 PM 38.3981 -77.4555 30° Northeast  Level Estimated

Login

Don't have an account? Register now (free) for customized features, flight alerts, and more!